createdAt,value
2022-10-02T00:02:42.059Z,67.95
2022-10-02T00:05:52.999Z,67.74
2022-10-02T00:09:04.730Z,67.64
2022-10-02T00:12:15.685Z,67.77
2022-10-02T00:15:27.780Z,68.36
2022-10-02T00:18:38.470Z,68.21
2022-10-02T00:22:02.728Z,68.26
2022-10-02T00:25:19.024Z,68.33
2022-10-02T00:28:29.971Z,68.27
2022-10-02T00:31:46.076Z,68.48
2022-10-02T00:35:05.708Z,68.68
2022-10-02T00:38:21.891Z,68.37
2022-10-02T00:41:55.811Z,68.44
2022-10-02T00:45:27.881Z,68.88
2022-10-02T00:48:55.135Z,68.56
2022-10-02T00:52:19.865Z,68.55
2022-10-02T00:55:53.226Z,68.17
2022-10-02T00:59:30.514Z,68.04
2022-10-02T01:02:57.943Z,67.99
2022-10-02T01:06:04.179Z,67.91
2022-10-02T01:09:08.804Z,67.62
2022-10-02T01:12:16.262Z,67.56
2022-10-02T01:15:29.127Z,67.54
2022-10-02T01:18:35.392Z,67.30
2022-10-02T01:21:50.843Z,67.20
2022-10-02T01:24:57.756Z,67.17
2022-10-02T01:28:05.840Z,67.08
2022-10-02T01:31:14.837Z,67.18
2022-10-02T01:34:21.655Z,67.13
2022-10-02T01:37:31.173Z,66.93
2022-10-02T01:40:38.935Z,66.84
2022-10-02T01:43:49.279Z,67.05
2022-10-02T01:47:02.584Z,66.82
2022-10-02T01:50:19.236Z,66.75
2022-10-02T01:53:33.079Z,66.79
2022-10-02T01:56:49.221Z,66.79
2022-10-02T02:00:07.710Z,67.05
2022-10-02T02:03:23.584Z,66.90
2022-10-02T02:06:35.450Z,66.83
2022-10-02T02:09:47.360Z,66.94
2022-10-02T02:13:01.861Z,66.98
2022-10-02T02:16:15.515Z,67.13
2022-10-02T02:19:27.151Z,67.07
2022-10-02T02:22:35.649Z,67.33
2022-10-02T02:25:45.390Z,67.76
2022-10-02T02:28:58.648Z,68.20
2022-10-02T02:32:09.359Z,68.64
2022-10-02T02:35:18.620Z,69.05
2022-10-02T02:38:30.886Z,69.17
2022-10-02T02:41:43.078Z,69.42
2022-10-02T02:44:54.275Z,69.35
2022-10-02T02:48:05.783Z,69.37
2022-10-02T02:51:16.529Z,69.37
2022-10-02T02:54:29.163Z,69.36
2022-10-02T02:57:41.635Z,69.28
2022-10-02T03:00:48.122Z,69.33
2022-10-02T03:03:54.427Z,69.29
2022-10-02T03:07:04.343Z,69.37
2022-10-02T03:10:17.554Z,69.41
2022-10-02T03:13:37.277Z,69.48
2022-10-02T03:16:55.277Z,69.29
2022-10-02T03:20:08.927Z,69.19
2022-10-02T03:23:23.788Z,68.86
2022-10-02T03:26:38.611Z,68.88
2022-10-02T03:29:51.918Z,68.90
2022-10-02T03:33:01.320Z,68.47
2022-10-02T03:36:08.121Z,68.40
2022-10-02T03:39:29.949Z,68.48
2022-10-02T03:42:38.287Z,68.74
2022-10-02T03:45:51.281Z,68.83
2022-10-02T03:48:58.140Z,68.75
2022-10-02T03:52:03.023Z,68.70
2022-10-02T03:55:22.694Z,68.78
2022-10-02T03:58:28.951Z,68.59
2022-10-02T04:01:38.344Z,68.47
2022-10-02T04:04:49.265Z,68.54
2022-10-02T04:07:59.122Z,68.47
2022-10-02T04:11:12.940Z,68.32
2022-10-02T04:14:24.269Z,67.89
2022-10-02T04:17:36.676Z,67.95
2022-10-02T04:20:48.827Z,68.10
2022-10-02T04:23:58.923Z,68.03
2022-10-02T04:27:09.461Z,68.18
2022-10-02T04:30:18.217Z,68.04
2022-10-02T04:33:26.192Z,67.76
2022-10-02T04:36:43.052Z,67.90
2022-10-02T04:40:06.656Z,67.86
2022-10-02T04:43:23.810Z,67.65
2022-10-02T04:46:47.624Z,67.63
2022-10-02T04:50:20.084Z,67.57
2022-10-02T04:53:42.591Z,67.63
2022-10-02T04:57:03.348Z,67.48
2022-10-02T05:00:13.078Z,67.33
2022-10-02T05:03:40.971Z,67.34
2022-10-02T05:07:02.479Z,67.06
2022-10-02T05:10:24.798Z,67.08
2022-10-02T05:14:07.230Z,67.06
2022-10-02T05:17:29.454Z,66.98
2022-10-02T05:20:53.867Z,67.05
2022-10-02T05:24:19.786Z,66.44
2022-10-02T05:27:49.405Z,66.53
2022-10-02T05:31:04.534Z,66.46
2022-10-02T05:34:32.711Z,66.23
2022-10-02T05:37:53.057Z,66.33
2022-10-02T05:41:06.161Z,66.15
2022-10-02T05:44:18.926Z,65.92
2022-10-02T05:47:30.087Z,65.88
2022-10-02T05:50:39.335Z,66.14
2022-10-02T05:53:51.777Z,66.19
2022-10-02T05:57:04.451Z,65.80
2022-10-02T06:00:24.229Z,65.24
2022-10-02T06:03:37.242Z,65.34
2022-10-02T06:06:47.656Z,65.70
2022-10-02T06:10:00.409Z,65.65
2022-10-02T06:13:14.056Z,65.32
2022-10-02T06:16:25.825Z,65.13
2022-10-02T06:19:35.905Z,65.36
2022-10-02T06:22:47.826Z,65.37
2022-10-02T06:25:57.754Z,64.97
2022-10-02T06:29:06.681Z,64.45
2022-10-02T06:32:24.898Z,64.83
2022-10-02T06:35:44.416Z,64.67
2022-10-02T06:39:19.400Z,64.48
2022-10-02T06:42:42.864Z,64.42
2022-10-02T06:45:58.923Z,64.47
2022-10-02T06:49:13.541Z,64.41
2022-10-02T06:52:35.765Z,64.69
2022-10-02T06:55:52.114Z,64.70
2022-10-02T06:59:10.579Z,64.04
2022-10-02T07:02:33.891Z,64.12
2022-10-02T07:06:07.479Z,64.14
2022-10-02T07:09:44.181Z,63.99
2022-10-02T07:13:12.157Z,63.74
2022-10-02T07:16:33.387Z,63.91
2022-10-02T07:20:06.112Z,63.90
2022-10-02T07:23:29.495Z,63.52
2022-10-02T07:26:55.099Z,63.62
2022-10-02T07:30:06.444Z,62.81
2022-10-02T07:33:21.195Z,62.66
2022-10-02T07:36:39.174Z,62.79
2022-10-02T07:39:58.391Z,62.71
2022-10-02T07:43:18.250Z,62.54
2022-10-02T07:46:34.339Z,61.91
2022-10-02T07:49:52.174Z,61.30
2022-10-02T07:53:10.843Z,61.83
2022-10-02T07:56:22.787Z,61.77
2022-10-02T07:59:31.743Z,61.28
2022-10-02T08:02:44.515Z,61.45
2022-10-02T08:05:53.638Z,60.91
2022-10-02T08:09:04.475Z,60.81
2022-10-02T08:12:28.306Z,61.10
2022-10-02T08:15:38.692Z,60.39
2022-10-02T08:18:50.350Z,59.31
2022-10-02T08:22:02.423Z,59.02
2022-10-02T08:25:18.712Z,60.99
2022-10-02T08:28:30.558Z,61.11
2022-10-02T08:31:36.895Z,60.89
2022-10-02T08:34:44.269Z,59.95
2022-10-02T08:38:10.303Z,58.94
2022-10-02T08:41:44.416Z,59.69
2022-10-02T08:45:35.887Z,62.97
2022-10-02T08:49:28.528Z,62.22
2022-10-02T08:53:00.156Z,62.08
2022-10-02T08:56:26.508Z,61.13
2022-10-02T09:00:07.549Z,58.18
2022-10-02T09:03:52.323Z,59.69
2022-10-02T09:07:29.434Z,61.85
2022-10-02T09:11:20.975Z,62.09
2022-10-02T09:14:47.660Z,59.96
2022-10-02T09:18:07.921Z,59.36
2022-10-02T09:21:29.291Z,58.64
2022-10-02T09:25:11.324Z,60.09
2022-10-02T09:28:59.471Z,60.35
2022-10-02T09:32:43.435Z,61.47
2022-10-02T09:36:29.285Z,61.00
2022-10-02T09:40:10.913Z,58.51
2022-10-02T09:43:51.660Z,58.38
2022-10-02T09:47:24.460Z,61.06
2022-10-02T09:51:21.767Z,62.26
2022-10-02T09:55:01.699Z,60.23
2022-10-02T09:58:44.276Z,59.11
2022-10-02T10:02:31.199Z,58.01
2022-10-02T10:06:14.292Z,58.46
2022-10-02T10:10:05.395Z,58.74
2022-10-02T10:13:38.925Z,60.74
2022-10-02T10:17:21.529Z,61.62
2022-10-02T10:21:01.906Z,60.88
2022-10-02T10:24:39.974Z,60.96
2022-10-02T10:28:13.000Z,61.69
2022-10-02T10:31:57.473Z,61.16
2022-10-02T10:35:37.536Z,62.11
2022-10-02T10:38:53.185Z,61.93
2022-10-02T10:43:03.083Z,61.84
2022-10-02T10:46:23.368Z,62.61
2022-10-02T10:50:12.119Z,62.85
2022-10-02T10:53:44.979Z,63.02
2022-10-02T10:56:55.869Z,63.25
2022-10-02T11:00:22.056Z,60.70
2022-10-02T11:04:04.808Z,61.18
2022-10-02T11:07:36.458Z,60.23
2022-10-02T11:10:53.824Z,58.03
2022-10-02T11:14:20.686Z,58.03
2022-10-02T11:17:42.819Z,57.72
2022-10-02T11:21:23.320Z,58.28
2022-10-02T11:24:51.084Z,58.49
2022-10-02T11:28:32.414Z,59.75
2022-10-02T11:32:01.236Z,59.33
2022-10-02T11:35:25.370Z,59.28
2022-10-02T11:38:55.543Z,60.70
2022-10-02T11:42:29.356Z,60.12
2022-10-02T11:45:49.973Z,58.47
2022-10-02T11:49:27.357Z,56.57
2022-10-02T11:53:00.742Z,57.67
2022-10-02T11:56:31.289Z,57.93
2022-10-02T12:00:06.415Z,58.32
2022-10-02T12:03:21.939Z,57.71
2022-10-02T12:06:47.916Z,58.95
2022-10-02T12:10:06.616Z,60.04
2022-10-02T12:13:38.849Z,60.07
2022-10-02T12:17:07.887Z,59.68
2022-10-02T12:20:42.481Z,60.41
2022-10-02T12:24:14.549Z,60.04
2022-10-02T12:27:30.957Z,61.51
2022-10-02T12:30:44.709Z,61.01
2022-10-02T12:34:01.388Z,58.54
2022-10-02T12:37:16.800Z,57.20
2022-10-02T12:40:32.049Z,58.02
2022-10-02T12:44:05.569Z,58.25
2022-10-02T12:47:35.502Z,58.78
2022-10-02T12:51:06.040Z,59.17
2022-10-02T12:54:46.491Z,58.93
2022-10-02T12:58:07.515Z,59.22
2022-10-02T13:01:54.028Z,60.46
2022-10-02T13:05:44.611Z,60.56
2022-10-02T13:09:19.773Z,63.82
2022-10-02T13:12:51.090Z,64.61
2022-10-02T13:16:04.656Z,65.30
2022-10-02T13:19:21.311Z,64.92
2022-10-02T13:22:38.219Z,65.87
2022-10-02T13:26:06.872Z,68.51
2022-10-02T13:29:29.457Z,69.71
2022-10-02T13:32:59.588Z,68.51
2022-10-02T13:36:17.245Z,68.62
2022-10-02T13:39:36.996Z,67.76
2022-10-02T13:43:09.329Z,64.38
2022-10-02T13:46:30.480Z,63.89
2022-10-02T13:49:55.763Z,64.27
2022-10-02T13:53:32.350Z,62.73
2022-10-02T13:56:51.916Z,60.84
2022-10-02T14:00:09.549Z,59.96
2022-10-02T14:03:23.403Z,58.83
2022-10-02T14:06:35.528Z,57.72
2022-10-02T14:09:53.040Z,57.87
2022-10-02T14:13:19.979Z,57.84
2022-10-02T14:16:40.357Z,59.37
2022-10-02T14:20:18.875Z,61.25
2022-10-02T14:23:53.983Z,60.59
2022-10-02T14:27:12.947Z,59.86
2022-10-02T14:30:23.824Z,59.95
2022-10-02T14:33:40.513Z,60.33
2022-10-02T14:36:57.314Z,59.16
2022-10-02T14:40:11.247Z,57.90
2022-10-02T14:43:33.769Z,57.16
2022-10-02T14:47:15.392Z,57.04
2022-10-02T14:50:51.411Z,57.48
2022-10-02T14:54:13.835Z,58.67
2022-10-02T14:57:37.863Z,60.10
2022-10-02T15:00:56.470Z,59.52
2022-10-02T15:04:31.899Z,59.69
2022-10-02T15:07:39.278Z,61.30
2022-10-02T15:10:51.011Z,61.79
2022-10-02T15:14:04.948Z,60.21
2022-10-02T15:17:34.735Z,58.53
2022-10-02T15:20:59.558Z,57.89
2022-10-02T15:24:28.842Z,58.81
2022-10-02T15:27:44.287Z,59.76
2022-10-02T15:30:58.133Z,61.69
2022-10-02T15:34:15.186Z,64.12
2022-10-02T15:37:28.005Z,64.04
2022-10-02T15:40:37.944Z,63.79
2022-10-02T15:44:06.961Z,63.68
2022-10-02T15:47:32.148Z,63.32
2022-10-02T15:50:53.388Z,62.94
2022-10-02T15:54:11.053Z,62.71
2022-10-02T15:57:31.355Z,62.48
2022-10-02T16:01:02.183Z,62.79
2022-10-02T16:04:23.113Z,62.70
2022-10-02T16:07:47.154Z,62.80
2022-10-02T16:11:06.961Z,62.96
2022-10-02T16:14:16.210Z,62.84
2022-10-02T16:17:41.331Z,62.90
2022-10-02T16:21:20.043Z,63.13
2022-10-02T16:24:41.424Z,63.16
2022-10-02T16:28:04.476Z,63.21
2022-10-02T16:31:26.062Z,63.23
2022-10-02T16:35:13.264Z,63.43
2022-10-02T16:38:25.951Z,63.98
2022-10-02T16:41:42.688Z,64.02
2022-10-02T16:45:07.360Z,64.37
2022-10-02T16:48:18.234Z,64.72
2022-10-02T16:51:50.659Z,64.68
2022-10-02T16:55:06.810Z,65.55
2022-10-02T16:58:27.412Z,65.98
2022-10-02T17:02:05.502Z,65.63
2022-10-02T17:05:23.365Z,65.35
2022-10-02T17:08:37.729Z,64.95
2022-10-02T17:11:53.998Z,64.55
2022-10-02T17:15:10.220Z,65.23
2022-10-02T17:18:29.537Z,67.22
2022-10-02T17:21:45.805Z,67.66
2022-10-02T17:25:02.634Z,67.75
2022-10-02T17:28:21.102Z,67.98
2022-10-02T17:31:42.114Z,67.94
2022-10-02T17:34:52.066Z,67.75
2022-10-02T17:38:18.781Z,67.79
2022-10-02T17:41:42.497Z,67.72
2022-10-02T17:44:58.271Z,67.59
2022-10-02T17:48:21.914Z,67.33
2022-10-02T17:51:53.669Z,67.33
2022-10-02T17:55:27.687Z,67.22
2022-10-02T17:58:44.295Z,66.96
2022-10-02T18:02:02.291Z,66.80
2022-10-02T18:05:22.324Z,67.16
2022-10-02T18:09:06.992Z,67.17
2022-10-02T18:12:51.954Z,67.61
2022-10-02T18:16:10.645Z,67.70
2022-10-02T18:19:36.427Z,67.66
2022-10-02T18:22:58.567Z,67.60
2022-10-02T18:26:20.258Z,67.37
2022-10-02T18:29:38.048Z,67.22
2022-10-02T18:33:09.302Z,66.98
2022-10-02T18:36:39.252Z,66.87
2022-10-02T18:40:04.876Z,66.79
2022-10-02T18:43:43.466Z,66.72
2022-10-02T18:46:59.464Z,66.77
2022-10-02T18:50:18.525Z,66.86
2022-10-02T18:53:52.268Z,66.77
2022-10-02T18:57:14.413Z,66.85
2022-10-02T19:00:24.429Z,67.06
2022-10-02T19:03:37.999Z,67.48
2022-10-02T19:06:53.573Z,67.50
2022-10-02T19:10:29.370Z,67.34
2022-10-02T19:13:42.276Z,67.22
2022-10-02T19:17:02.567Z,66.96
2022-10-02T19:20:37.095Z,66.80
2022-10-02T19:23:50.433Z,66.89
2022-10-02T19:27:00.724Z,66.80
2022-10-02T19:30:23.579Z,66.74
2022-10-02T19:33:43.530Z,66.73
2022-10-02T19:36:53.239Z,66.88
2022-10-02T19:40:03.292Z,66.92
2022-10-02T19:43:19.102Z,66.96
2022-10-02T19:46:39.928Z,66.93
2022-10-02T19:49:48.058Z,67.15
2022-10-02T19:52:58.872Z,67.25
2022-10-02T19:56:11.248Z,67.62
2022-10-02T19:59:21.219Z,68.05
2022-10-02T20:02:31.255Z,68.40
2022-10-02T20:05:38.785Z,68.86
2022-10-02T20:08:47.946Z,68.66
2022-10-02T20:11:56.437Z,67.96
2022-10-02T20:15:10.260Z,68.28
2022-10-02T20:18:17.086Z,68.36
2022-10-02T20:21:30.903Z,68.31
2022-10-02T20:24:42.636Z,68.46
2022-10-02T20:27:54.178Z,68.60
2022-10-02T20:31:05.945Z,68.72
2022-10-02T20:34:23.692Z,68.87
2022-10-02T20:37:35.079Z,68.90
2022-10-02T20:40:47.651Z,68.70
2022-10-02T20:43:56.670Z,68.01
2022-10-02T20:47:32.219Z,67.42
2022-10-02T20:50:41.728Z,67.47
2022-10-02T20:54:18.880Z,67.28
2022-10-02T20:58:01.626Z,66.99
2022-10-02T21:01:20.021Z,66.75
2022-10-02T21:05:11.224Z,67.03
2022-10-02T21:08:40.864Z,66.93
2022-10-02T21:12:11.270Z,66.90
2022-10-02T21:15:58.804Z,67.09
2022-10-02T21:19:31.638Z,67.14
2022-10-02T21:23:23.733Z,67.51
2022-10-02T21:26:48.962Z,67.45
2022-10-02T21:30:04.981Z,67.61
2022-10-02T21:33:21.704Z,67.64
2022-10-02T21:36:34.196Z,67.97
2022-10-02T21:40:09.423Z,67.79
2022-10-02T21:43:48.981Z,67.66
2022-10-02T21:47:18.963Z,67.72
2022-10-02T21:51:07.954Z,67.94
2022-10-02T21:54:49.845Z,67.93
2022-10-02T21:58:38.710Z,68.03
2022-10-02T22:02:15.256Z,68.04
2022-10-02T22:05:42.082Z,67.95
2022-10-02T22:09:03.363Z,68.11
2022-10-02T22:12:21.842Z,68.11
2022-10-02T22:15:39.637Z,68.18
2022-10-02T22:18:54.947Z,68.32
2022-10-02T22:22:13.407Z,68.54
2022-10-02T22:25:34.342Z,68.68
2022-10-02T22:28:46.399Z,68.38
2022-10-02T22:32:29.513Z,68.11
2022-10-02T22:35:50.046Z,68.23
2022-10-02T22:39:03.580Z,68.18
2022-10-02T22:42:15.871Z,67.95
2022-10-02T22:45:27.755Z,67.80
2022-10-02T22:48:41.412Z,67.76
2022-10-02T22:51:54.889Z,67.70
2022-10-02T22:55:11.479Z,67.89
2022-10-02T22:58:24.376Z,67.80
2022-10-02T23:01:39.777Z,68.06
2022-10-02T23:04:53.408Z,68.04
2022-10-02T23:08:06.795Z,68.25
2022-10-02T23:11:18.193Z,68.68
2022-10-02T23:14:35.747Z,68.78
2022-10-02T23:17:50.826Z,68.73
2022-10-02T23:21:04.955Z,68.95
2022-10-02T23:24:26.169Z,69.17
2022-10-02T23:27:39.859Z,69.15
2022-10-02T23:30:50.234Z,69.05
2022-10-02T23:34:03.914Z,69.07
2022-10-02T23:37:18.735Z,69.38
2022-10-02T23:40:43.990Z,69.19
2022-10-02T23:43:58.791Z,69.18
2022-10-02T23:47:17.539Z,69.02
2022-10-02T23:50:28.394Z,68.97
2022-10-02T23:53:58.564Z,68.72
2022-10-02T23:57:21.814Z,68.62
